sensor_id;sensor_type;location;lat;lon;timestamp;P1;durP1;ratioP1;P2;durP2;ratioP2
74749;SDS011;63269;53.330;-6.288;2023-11-19T00:00:16;15.20;;;4.55;;
74749;SDS011;63269;53.330;-6.288;2023-11-19T00:02:42;10.48;;;3.72;;
74749;SDS011;63269;53.330;-6.288;2023-11-19T00:05:07;17.02;;;4.65;;
74749;SDS011;63269;53.330;-6.288;2023-11-19T00:07:37;13.35;;;3.25;;
74749;SDS011;63269;53.330;-6.288;2023-11-19T00:10:07;12.70;;;3.15;;
74749;SDS011;63269;53.330;-6.288;2023-11-19T00:12:46;13.25;;;3.58;;
74749;SDS011;63269;53.330;-6.288;2023-11-19T00:15:13;10.90;;;3.33;;
74749;SDS011;63269;53.330;-6.288;2023-11-19T00:17:40;16.63;;;3.63;;
74749;SDS011;63269;53.330;-6.288;2023-11-19T00:20:09;11.55;;;3.47;;
74749;SDS011;63269;53.330;-6.288;2023-11-19T00:22:36;13.00;;;3.92;;
74749;SDS011;63269;53.330;-6.288;2023-11-19T00:25:01;18.23;;;3.70;;
74749;SDS011;63269;53.330;-6.288;2023-11-19T00:27:27;15.50;;;3.95;;
74749;SDS011;63269;53.330;-6.288;2023-11-19T00:29:52;14.20;;;4.10;;
74749;SDS011;63269;53.330;-6.288;2023-11-19T00:32:20;16.67;;;4.55;;
74749;SDS011;63269;53.330;-6.288;2023-11-19T00:34:46;18.92;;;3.75;;
74749;SDS011;63269;53.330;-6.288;2023-11-19T00:37:13;13.40;;;3.60;;
74749;SDS011;63269;53.330;-6.288;2023-11-19T00:39:39;12.52;;;3.65;;
74749;SDS011;63269;53.330;-6.288;2023-11-19T00:42:04;10.07;;;3.72;;
74749;SDS011;63269;53.330;-6.288;2023-11-19T00:44:30;13.45;;;3.38;;
74749;SDS011;63269;53.330;-6.288;2023-11-19T00:46:56;11.60;;;3.58;;
74749;SDS011;63269;53.330;-6.288;2023-11-19T00:49:21;12.60;;;3.22;;
74749;SDS011;63269;53.330;-6.288;2023-11-19T00:51:46;17.15;;;3.78;;
74749;SDS011;63269;53.330;-6.288;2023-11-19T00:54:12;11.48;;;2.95;;
74749;SDS011;63269;53.330;-6.288;2023-11-19T00:56:37;9.43;;;2.85;;
74749;SDS011;63269;53.330;-6.288;2023-11-19T00:59:03;15.32;;;3.88;;
74749;SDS011;63269;53.330;-6.288;2023-11-19T01:01:29;12.77;;;2.97;;
74749;SDS011;63269;53.330;-6.288;2023-11-19T01:03:55;13.40;;;3.67;;
74749;SDS011;63269;53.330;-6.288;2023-11-19T01:06:28;14.20;;;3.20;;
74749;SDS011;63269;53.330;-6.288;2023-11-19T01:08:57;9.25;;;2.97;;
74749;SDS011;63269;53.330;-6.288;2023-11-19T01:11:24;11.73;;;3.28;;
74749;SDS011;63269;53.330;-6.288;2023-11-19T01:13:50;11.80;;;3.38;;
74749;SDS011;63269;53.330;-6.288;2023-11-19T01:16:16;13.18;;;3.25;;
74749;SDS011;63269;53.330;-6.288;2023-11-19T01:18:41;16.35;;;4.20;;
74749;SDS011;63269;53.330;-6.288;2023-11-19T01:21:07;13.70;;;3.22;;
74749;SDS011;63269;53.330;-6.288;2023-11-19T01:23:33;11.82;;;3.40;;
74749;SDS011;63269;53.330;-6.288;2023-11-19T01:25:59;13.63;;;3.75;;
74749;SDS011;63269;53.330;-6.288;2023-11-19T01:28:25;13.48;;;3.13;;
74749;SDS011;63269;53.330;-6.288;2023-11-19T01:30:50;11.38;;;3.28;;
74749;SDS011;63269;53.330;-6.288;2023-11-19T01:33:16;13.20;;;3.47;;
74749;SDS011;63269;53.330;-6.288;2023-11-19T01:35:41;13.13;;;3.20;;
74749;SDS011;63269;53.330;-6.288;2023-11-19T01:38:07;9.70;;;3.08;;
74749;SDS011;63269;53.330;-6.288;2023-11-19T01:40:33;11.88;;;2.78;;
74749;SDS011;63269;53.330;-6.288;2023-11-19T01:42:59;10.15;;;2.97;;
74749;SDS011;63269;53.330;-6.288;2023-11-19T01:45:28;9.50;;;2.53;;
74749;SDS011;63269;53.330;-6.288;2023-11-19T01:47:56;18.45;;;3.38;;
74749;SDS011;63269;53.330;-6.288;2023-11-19T01:50:25;15.63;;;3.17;;
74749;SDS011;63269;53.330;-6.288;2023-11-19T01:52:52;10.40;;;2.90;;
74749;SDS011;63269;53.330;-6.288;2023-11-19T01:55:18;11.63;;;3.33;;
74749;SDS011;63269;53.330;-6.288;2023-11-19T01:57:47;7.88;;;2.63;;
74749;SDS011;63269;53.330;-6.288;2023-11-19T02:00:14;12.40;;;3.60;;
74749;SDS011;63269;53.330;-6.288;2023-11-19T02:02:41;10.93;;;3.22;;
74749;SDS011;63269;53.330;-6.288;2023-11-19T02:05:08;7.53;;;2.25;;
74749;SDS011;63269;53.330;-6.288;2023-11-19T02:07:34;10.60;;;2.75;;
74749;SDS011;63269;53.330;-6.288;2023-11-19T02:10:00;8.55;;;2.70;;
74749;SDS011;63269;53.330;-6.288;2023-11-19T02:12:26;8.18;;;3.17;;
74749;SDS011;63269;53.330;-6.288;2023-11-19T02:14:53;14.50;;;3.65;;
74749;SDS011;63269;53.330;-6.288;2023-11-19T02:17:28;10.02;;;2.97;;
74749;SDS011;63269;53.330;-6.288;2023-11-19T02:19:59;7.78;;;2.55;;
74749;SDS011;63269;53.330;-6.288;2023-11-19T02:22:25;12.15;;;3.13;;
74749;SDS011;63269;53.330;-6.288;2023-11-19T02:24:55;10.77;;;2.67;;
74749;SDS011;63269;53.330;-6.288;2023-11-19T02:27:30;11.23;;;3.08;;
74749;SDS011;63269;53.330;-6.288;2023-11-19T02:30:08;13.45;;;3.00;;
74749;SDS011;63269;53.330;-6.288;2023-11-19T02:32:34;12.48;;;2.70;;
74749;SDS011;63269;53.330;-6.288;2023-11-19T02:35:01;8.00;;;2.95;;
74749;SDS011;63269;53.330;-6.288;2023-11-19T02:37:26;13.48;;;2.97;;
74749;SDS011;63269;53.330;-6.288;2023-11-19T02:39:53;6.80;;;2.40;;
74749;SDS011;63269;53.330;-6.288;2023-11-19T02:42:18;10.48;;;2.50;;
74749;SDS011;63269;53.330;-6.288;2023-11-19T02:44:44;10.75;;;2.85;;
74749;SDS011;63269;53.330;-6.288;2023-11-19T02:47:10;9.23;;;2.33;;
74749;SDS011;63269;53.330;-6.288;2023-11-19T02:49:36;10.40;;;2.75;;
74749;SDS011;63269;53.330;-6.288;2023-11-19T02:52:02;10.68;;;2.90;;
74749;SDS011;63269;53.330;-6.288;2023-11-19T02:54:30;11.68;;;2.30;;
74749;SDS011;63269;53.330;-6.288;2023-11-19T02:57:00;6.88;;;2.47;;
74749;SDS011;63269;53.330;-6.288;2023-11-19T02:59:27;10.02;;;2.60;;
74749;SDS011;63269;53.330;-6.288;2023-11-19T03:01:53;9.88;;;2.67;;
74749;SDS011;63269;53.330;-6.288;2023-11-19T03:04:20;12.15;;;2.60;;
74749;SDS011;63269;53.330;-6.288;2023-11-19T03:06:45;7.55;;;2.40;;
74749;SDS011;63269;53.330;-6.288;2023-11-19T03:09:11;9.63;;;2.55;;
74749;SDS011;63269;53.330;-6.288;2023-11-19T03:11:37;9.77;;;3.15;;
74749;SDS011;63269;53.330;-6.288;2023-11-19T03:14:03;8.70;;;2.00;;
74749;SDS011;63269;53.330;-6.288;2023-11-19T03:16:29;10.43;;;3.38;;
74749;SDS011;63269;53.330;-6.288;2023-11-19T03:18:54;9.45;;;3.08;;
74749;SDS011;63269;53.330;-6.288;2023-11-19T03:21:26;10.30;;;2.78;;
74749;SDS011;63269;53.330;-6.288;2023-11-19T03:23:53;7.97;;;2.55;;
74749;SDS011;63269;53.330;-6.288;2023-11-19T03:26:18;6.75;;;2.78;;
74749;SDS011;63269;53.330;-6.288;2023-11-19T03:28:44;11.20;;;2.70;;
74749;SDS011;63269;53.330;-6.288;2023-11-19T03:31:09;8.82;;;2.55;;
74749;SDS011;63269;53.330;-6.288;2023-11-19T03:33:34;7.53;;;2.58;;
74749;SDS011;63269;53.330;-6.288;2023-11-19T03:36:00;11.77;;;2.90;;
74749;SDS011;63269;53.330;-6.288;2023-11-19T03:38:25;15.13;;;2.38;;
74749;SDS011;63269;53.330;-6.288;2023-11-19T03:40:51;8.32;;;2.60;;
74749;SDS011;63269;53.330;-6.288;2023-11-19T03:43:16;12.88;;;2.53;;
74749;SDS011;63269;53.330;-6.288;2023-11-19T03:45:42;10.77;;;2.78;;
74749;SDS011;63269;53.330;-6.288;2023-11-19T03:48:07;9.10;;;2.70;;
74749;SDS011;63269;53.330;-6.288;2023-11-19T03:50:33;27.85;;;3.58;;
74749;SDS011;63269;53.330;-6.288;2023-11-19T03:52:58;11.25;;;3.08;;
74749;SDS011;63269;53.330;-6.288;2023-11-19T03:55:24;7.25;;;2.42;;
74749;SDS011;63269;53.330;-6.288;2023-11-19T03:57:49;7.40;;;2.55;;
74749;SDS011;63269;53.330;-6.288;2023-11-19T04:00:15;10.15;;;2.83;;
74749;SDS011;63269;53.330;-6.288;2023-11-19T04:02:40;8.45;;;2.55;;
74749;SDS011;63269;53.330;-6.288;2023-11-19T04:05:06;7.05;;;2.53;;
74749;SDS011;63269;53.330;-6.288;2023-11-19T04:07:32;7.90;;;2.03;;
74749;SDS011;63269;53.330;-6.288;2023-11-19T04:09:58;6.80;;;1.80;;
74749;SDS011;63269;53.330;-6.288;2023-11-19T04:12:24;8.40;;;2.42;;
74749;SDS011;63269;53.330;-6.288;2023-11-19T04:14:49;7.68;;;2.00;;
74749;SDS011;63269;53.330;-6.288;2023-11-19T04:17:15;9.57;;;2.00;;
74749;SDS011;63269;53.330;-6.288;2023-11-19T04:19:40;5.95;;;1.65;;
74749;SDS011;63269;53.330;-6.288;2023-11-19T04:22:09;6.38;;;2.33;;
74749;SDS011;63269;53.330;-6.288;2023-11-19T04:24:35;5.70;;;2.20;;
74749;SDS011;63269;53.330;-6.288;2023-11-19T04:27:01;5.90;;;1.70;;
74749;SDS011;63269;53.330;-6.288;2023-11-19T04:29:27;7.78;;;1.80;;
74749;SDS011;63269;53.330;-6.288;2023-11-19T04:31:52;7.03;;;1.90;;
74749;SDS011;63269;53.330;-6.288;2023-11-19T04:34:17;8.52;;;1.98;;
74749;SDS011;63269;53.330;-6.288;2023-11-19T04:36:43;7.43;;;2.17;;
74749;SDS011;63269;53.330;-6.288;2023-11-19T04:39:09;3.88;;;1.80;;
74749;SDS011;63269;53.330;-6.288;2023-11-19T04:41:45;6.90;;;2.45;;
74749;SDS011;63269;53.330;-6.288;2023-11-19T04:44:10;9.63;;;2.65;;
74749;SDS011;63269;53.330;-6.288;2023-11-19T04:46:36;8.40;;;2.53;;
74749;SDS011;63269;53.330;-6.288;2023-11-19T04:49:02;6.90;;;1.77;;
74749;SDS011;63269;53.330;-6.288;2023-11-19T04:51:27;6.22;;;2.13;;
74749;SDS011;63269;53.330;-6.288;2023-11-19T04:53:53;9.30;;;2.15;;
74749;SDS011;63269;53.330;-6.288;2023-11-19T04:56:18;7.38;;;1.98;;
74749;SDS011;63269;53.330;-6.288;2023-11-19T04:58:44;5.60;;;1.52;;
74749;SDS011;63269;53.330;-6.288;2023-11-19T05:01:13;6.63;;;1.65;;
74749;SDS011;63269;53.330;-6.288;2023-11-19T05:03:43;5.93;;;1.88;;
74749;SDS011;63269;53.330;-6.288;2023-11-19T05:06:09;5.97;;;1.73;;
74749;SDS011;63269;53.330;-6.288;2023-11-19T05:08:35;5.65;;;1.60;;
74749;SDS011;63269;53.330;-6.288;2023-11-19T05:11:00;7.85;;;2.20;;
74749;SDS011;63269;53.330;-6.288;2023-11-19T05:13:26;4.78;;;1.70;;
74749;SDS011;63269;53.330;-6.288;2023-11-19T05:15:51;5.35;;;1.92;;
74749;SDS011;63269;53.330;-6.288;2023-11-19T05:18:17;6.28;;;1.50;;
74749;SDS011;63269;53.330;-6.288;2023-11-19T05:20:43;6.85;;;1.67;;
74749;SDS011;63269;53.330;-6.288;2023-11-19T05:23:09;7.07;;;1.42;;
74749;SDS011;63269;53.330;-6.288;2023-11-19T05:25:34;6.03;;;1.77;;
74749;SDS011;63269;53.330;-6.288;2023-11-19T05:28:01;5.90;;;1.48;;
74749;SDS011;63269;53.330;-6.288;2023-11-19T05:30:27;5.13;;;1.83;;
74749;SDS011;63269;53.330;-6.288;2023-11-19T05:32:52;5.22;;;1.63;;
74749;SDS011;63269;53.330;-6.288;2023-11-19T05:35:18;6.47;;;1.73;;
74749;SDS011;63269;53.330;-6.288;2023-11-19T05:37:43;5.38;;;1.38;;
74749;SDS011;63269;53.330;-6.288;2023-11-19T05:40:08;8.20;;;1.70;;
74749;SDS011;63269;53.330;-6.288;2023-11-19T05:42:39;5.78;;;1.77;;
74749;SDS011;63269;53.330;-6.288;2023-11-19T05:45:05;5.53;;;1.13;;
74749;SDS011;63269;53.330;-6.288;2023-11-19T05:47:32;4.57;;;1.40;;
74749;SDS011;63269;53.330;-6.288;2023-11-19T05:49:58;3.72;;;1.77;;
74749;SDS011;63269;53.330;-6.288;2023-11-19T05:52:23;4.50;;;1.50;;
74749;SDS011;63269;53.330;-6.288;2023-11-19T05:54:49;5.55;;;1.52;;
74749;SDS011;63269;53.330;-6.288;2023-11-19T05:57:17;5.55;;;1.70;;
74749;SDS011;63269;53.330;-6.288;2023-11-19T05:59:47;6.32;;;1.48;;
74749;SDS011;63269;53.330;-6.288;2023-11-19T06:02:13;4.18;;;1.20;;
74749;SDS011;63269;53.330;-6.288;2023-11-19T06:04:38;5.22;;;1.38;;
74749;SDS011;63269;53.330;-6.288;2023-11-19T06:07:04;5.10;;;1.70;;
74749;SDS011;63269;53.330;-6.288;2023-11-19T06:09:30;4.25;;;1.27;;
74749;SDS011;63269;53.330;-6.288;2023-11-19T06:11:58;3.45;;;1.20;;
74749;SDS011;63269;53.330;-6.288;2023-11-19T06:14:26;5.00;;;1.80;;
74749;SDS011;63269;53.330;-6.288;2023-11-19T06:16:52;4.28;;;1.40;;
74749;SDS011;63269;53.330;-6.288;2023-11-19T06:19:17;4.40;;;1.48;;
74749;SDS011;63269;53.330;-6.288;2023-11-19T06:21:43;3.38;;;0.90;;
74749;SDS011;63269;53.330;-6.288;2023-11-19T06:24:08;5.43;;;1.40;;
74749;SDS011;63269;53.330;-6.288;2023-11-19T06:26:34;4.93;;;1.48;;
74749;SDS011;63269;53.330;-6.288;2023-11-19T06:28:59;5.20;;;1.35;;
74749;SDS011;63269;53.330;-6.288;2023-11-19T06:31:25;3.72;;;1.48;;
74749;SDS011;63269;53.330;-6.288;2023-11-19T06:33:51;3.53;;;1.40;;
74749;SDS011;63269;53.330;-6.288;2023-11-19T06:36:16;3.35;;;1.10;;
74749;SDS011;63269;53.330;-6.288;2023-11-19T06:38:42;3.08;;;1.10;;
74749;SDS011;63269;53.330;-6.288;2023-11-19T06:41:08;4.38;;;1.35;;
74749;SDS011;63269;53.330;-6.288;2023-11-19T06:43:34;2.30;;;1.23;;
74749;SDS011;63269;53.330;-6.288;2023-11-19T06:46:00;2.35;;;1.02;;
74749;SDS011;63269;53.330;-6.288;2023-11-19T06:48:26;4.05;;;1.10;;
74749;SDS011;63269;53.330;-6.288;2023-11-19T06:50:52;4.78;;;1.20;;
74749;SDS011;63269;53.330;-6.288;2023-11-19T06:53:17;3.95;;;0.93;;
74749;SDS011;63269;53.330;-6.288;2023-11-19T06:55:43;3.67;;;1.13;;
74749;SDS011;63269;53.330;-6.288;2023-11-19T06:58:08;2.97;;;1.00;;
74749;SDS011;63269;53.330;-6.288;2023-11-19T07:00:33;2.58;;;0.75;;
74749;SDS011;63269;53.330;-6.288;2023-11-19T07:03:00;4.68;;;1.42;;
74749;SDS011;63269;53.330;-6.288;2023-11-19T07:05:26;2.67;;;1.20;;
74749;SDS011;63269;53.330;-6.288;2023-11-19T07:07:51;3.45;;;1.13;;
74749;SDS011;63269;53.330;-6.288;2023-11-19T07:10:17;2.63;;;0.93;;
74749;SDS011;63269;53.330;-6.288;2023-11-19T07:12:42;4.22;;;1.00;;
74749;SDS011;63269;53.330;-6.288;2023-11-19T07:15:08;2.95;;;0.80;;
74749;SDS011;63269;53.330;-6.288;2023-11-19T07:17:38;4.53;;;1.52;;
74749;SDS011;63269;53.330;-6.288;2023-11-19T07:20:05;3.80;;;1.13;;
74749;SDS011;63269;53.330;-6.288;2023-11-19T07:22:31;3.33;;;0.93;;
74749;SDS011;63269;53.330;-6.288;2023-11-19T07:24:56;3.17;;;0.82;;
74749;SDS011;63269;53.330;-6.288;2023-11-19T07:27:22;4.40;;;1.20;;
74749;SDS011;63269;53.330;-6.288;2023-11-19T07:29:49;4.50;;;1.23;;
74749;SDS011;63269;53.330;-6.288;2023-11-19T07:32:14;3.75;;;1.30;;
74749;SDS011;63269;53.330;-6.288;2023-11-19T07:34:40;2.60;;;1.00;;
74749;SDS011;63269;53.330;-6.288;2023-11-19T07:37:05;3.22;;;0.88;;
74749;SDS011;63269;53.330;-6.288;2023-11-19T07:39:31;3.05;;;0.80;;
74749;SDS011;63269;53.330;-6.288;2023-11-19T07:41:56;3.20;;;1.00;;
74749;SDS011;63269;53.330;-6.288;2023-11-19T07:44:22;3.83;;;1.40;;
74749;SDS011;63269;53.330;-6.288;2023-11-19T07:46:47;3.00;;;0.95;;
74749;SDS011;63269;53.330;-6.288;2023-11-19T07:49:13;2.85;;;1.10;;
74749;SDS011;63269;53.330;-6.288;2023-11-19T07:51:38;3.13;;;1.00;;
74749;SDS011;63269;53.330;-6.288;2023-11-19T07:54:04;2.65;;;0.90;;
74749;SDS011;63269;53.330;-6.288;2023-11-19T07:56:30;2.80;;;0.77;;
74749;SDS011;63269;53.330;-6.288;2023-11-19T07:58:55;3.38;;;0.80;;
74749;SDS011;63269;53.330;-6.288;2023-11-19T08:01:21;2.90;;;0.70;;
74749;SDS011;63269;53.330;-6.288;2023-11-19T08:03:48;3.97;;;0.95;;
74749;SDS011;63269;53.330;-6.288;2023-11-19T08:06:14;2.88;;;0.88;;
74749;SDS011;63269;53.330;-6.288;2023-11-19T08:08:39;3.28;;;1.08;;
74749;SDS011;63269;53.330;-6.288;2023-11-19T08:11:05;2.50;;;0.80;;
74749;SDS011;63269;53.330;-6.288;2023-11-19T08:13:30;1.77;;;0.65;;
74749;SDS011;63269;53.330;-6.288;2023-11-19T08:15:56;3.20;;;1.00;;
74749;SDS011;63269;53.330;-6.288;2023-11-19T08:18:23;2.47;;;0.70;;
74749;SDS011;63269;53.330;-6.288;2023-11-19T08:20:49;1.67;;;0.60;;
74749;SDS011;63269;53.330;-6.288;2023-11-19T08:23:18;1.95;;;1.08;;
74749;SDS011;63269;53.330;-6.288;2023-11-19T08:25:45;2.13;;;0.90;;
74749;SDS011;63269;53.330;-6.288;2023-11-19T08:28:10;2.00;;;0.70;;
74749;SDS011;63269;53.330;-6.288;2023-11-19T08:30:35;2.25;;;0.82;;
74749;SDS011;63269;53.330;-6.288;2023-11-19T08:33:01;2.42;;;0.52;;
74749;SDS011;63269;53.330;-6.288;2023-11-19T08:35:28;1.90;;;0.50;;
74749;SDS011;63269;53.330;-6.288;2023-11-19T08:37:54;2.15;;;0.52;;
74749;SDS011;63269;53.330;-6.288;2023-11-19T08:40:19;1.80;;;0.50;;
74749;SDS011;63269;53.330;-6.288;2023-11-19T08:42:45;1.85;;;0.50;;
74749;SDS011;63269;53.330;-6.288;2023-11-19T08:45:11;1.60;;;0.57;;
74749;SDS011;63269;53.330;-6.288;2023-11-19T08:47:36;3.00;;;0.65;;
74749;SDS011;63269;53.330;-6.288;2023-11-19T08:50:02;1.30;;;0.50;;
74749;SDS011;63269;53.330;-6.288;2023-11-19T08:52:29;1.85;;;0.43;;
74749;SDS011;63269;53.330;-6.288;2023-11-19T08:54:55;1.95;;;0.52;;
74749;SDS011;63269;53.330;-6.288;2023-11-19T08:57:21;1.30;;;0.43;;
74749;SDS011;63269;53.330;-6.288;2023-11-19T08:59:46;2.08;;;0.60;;
74749;SDS011;63269;53.330;-6.288;2023-11-19T09:02:12;2.85;;;0.60;;
74749;SDS011;63269;53.330;-6.288;2023-11-19T09:04:37;0.98;;;0.30;;
74749;SDS011;63269;53.330;-6.288;2023-11-19T09:07:02;2.05;;;0.63;;
74749;SDS011;63269;53.330;-6.288;2023-11-19T09:09:28;1.20;;;0.50;;
74749;SDS011;63269;53.330;-6.288;2023-11-19T09:11:54;1.52;;;0.50;;
74749;SDS011;63269;53.330;-6.288;2023-11-19T09:14:20;0.80;;;0.40;;
74749;SDS011;63269;53.330;-6.288;2023-11-19T09:16:50;1.15;;;0.60;;
74749;SDS011;63269;53.330;-6.288;2023-11-19T09:19:16;0.65;;;0.57;;
74749;SDS011;63269;53.330;-6.288;2023-11-19T09:21:42;1.92;;;0.52;;
74749;SDS011;63269;53.330;-6.288;2023-11-19T09:24:08;0.93;;;0.73;;
74749;SDS011;63269;53.330;-6.288;2023-11-19T09:26:33;1.75;;;0.30;;
74749;SDS011;63269;53.330;-6.288;2023-11-19T09:28:59;0.95;;;0.30;;
74749;SDS011;63269;53.330;-6.288;2023-11-19T09:31:24;1.10;;;0.38;;
74749;SDS011;63269;53.330;-6.288;2023-11-19T09:33:50;0.98;;;0.38;;
74749;SDS011;63269;53.330;-6.288;2023-11-19T09:36:15;0.65;;;0.30;;
74749;SDS011;63269;53.330;-6.288;2023-11-19T09:38:42;0.70;;;0.63;;
74749;SDS011;63269;53.330;-6.288;2023-11-19T09:41:09;1.52;;;0.40;;
74749;SDS011;63269;53.330;-6.288;2023-11-19T09:43:37;0.50;;;0.20;;
74749;SDS011;63269;53.330;-6.288;2023-11-19T09:46:06;1.05;;;0.20;;
74749;SDS011;63269;53.330;-6.288;2023-11-19T09:48:36;0.82;;;0.22;;
74749;SDS011;63269;53.330;-6.288;2023-11-19T09:51:08;1.45;;;0.30;;
74749;SDS011;63269;53.330;-6.288;2023-11-19T09:53:34;1.20;;;0.25;;
74749;SDS011;63269;53.330;-6.288;2023-11-19T09:56:04;1.73;;;0.40;;
74749;SDS011;63269;53.330;-6.288;2023-11-19T09:58:31;0.52;;;0.20;;
74749;SDS011;63269;53.330;-6.288;2023-11-19T10:01:00;0.67;;;0.30;;
74749;SDS011;63269;53.330;-6.288;2023-11-19T10:03:27;0.98;;;0.75;;
74749;SDS011;63269;53.330;-6.288;2023-11-19T10:05:57;0.80;;;0.20;;
74749;SDS011;63269;53.330;-6.288;2023-11-19T10:08:23;0.70;;;0.30;;
74749;SDS011;63269;53.330;-6.288;2023-11-19T10:10:48;0.77;;;0.30;;
74749;SDS011;63269;53.330;-6.288;2023-11-19T10:13:14;0.82;;;0.30;;
74749;SDS011;63269;53.330;-6.288;2023-11-19T10:15:40;1.10;;;0.40;;
74749;SDS011;63269;53.330;-6.288;2023-11-19T10:18:05;0.60;;;0.20;;
74749;SDS011;63269;53.330;-6.288;2023-11-19T10:20:37;0.50;;;0.30;;
74749;SDS011;63269;53.330;-6.288;2023-11-19T10:23:03;0.60;;;0.50;;
74749;SDS011;63269;53.330;-6.288;2023-11-19T10:25:28;0.82;;;0.30;;
74749;SDS011;63269;53.330;-6.288;2023-11-19T10:27:55;0.85;;;0.40;;
74749;SDS011;63269;53.330;-6.288;2023-11-19T10:30:22;0.73;;;0.28;;
74749;SDS011;63269;53.330;-6.288;2023-11-19T10:33:04;0.88;;;0.30;;
74749;SDS011;63269;53.330;-6.288;2023-11-19T10:35:31;1.77;;;0.30;;
74749;SDS011;63269;53.330;-6.288;2023-11-19T10:38:16;0.70;;;0.25;;
74749;SDS011;63269;53.330;-6.288;2023-11-19T10:40:41;1.38;;;0.32;;
74749;SDS011;63269;53.330;-6.288;2023-11-19T10:43:07;0.85;;;0.22;;
74749;SDS011;63269;53.330;-6.288;2023-11-19T10:45:33;0.43;;;0.20;;
74749;SDS011;63269;53.330;-6.288;2023-11-19T10:47:59;1.15;;;0.45;;
74749;SDS011;63269;53.330;-6.288;2023-11-19T10:50:28;1.45;;;0.40;;
74749;SDS011;63269;53.330;-6.288;2023-11-19T10:52:55;1.15;;;0.52;;
74749;SDS011;63269;53.330;-6.288;2023-11-19T10:55:28;1.15;;;0.40;;
74749;SDS011;63269;53.330;-6.288;2023-11-19T10:57:59;0.80;;;0.30;;
74749;SDS011;63269;53.330;-6.288;2023-11-19T11:00:30;2.25;;;0.40;;
74749;SDS011;63269;53.330;-6.288;2023-11-19T11:03:02;0.82;;;0.30;;
74749;SDS011;63269;53.330;-6.288;2023-11-19T11:05:35;0.95;;;0.28;;
74749;SDS011;63269;53.330;-6.288;2023-11-19T11:08:03;0.65;;;0.25;;
74749;SDS011;63269;53.330;-6.288;2023-11-19T11:10:31;1.58;;;0.40;;
74749;SDS011;63269;53.330;-6.288;2023-11-19T11:13:01;2.67;;;0.50;;
74749;SDS011;63269;53.330;-6.288;2023-11-19T11:15:29;0.88;;;0.40;;
74749;SDS011;63269;53.330;-6.288;2023-11-19T11:17:57;1.92;;;0.50;;
74749;SDS011;63269;53.330;-6.288;2023-11-19T11:20:31;1.33;;;0.40;;
74749;SDS011;63269;53.330;-6.288;2023-11-19T11:31:38;1.42;;;0.70;;
74749;SDS011;63269;53.330;-6.288;2023-11-19T11:39:33;1.85;;;1.25;;
74749;SDS011;63269;53.330;-6.288;2023-11-19T11:42:33;3.45;;;1.15;;
74749;SDS011;63269;53.330;-6.288;2023-11-19T11:44:57;2.00;;;1.10;;
74749;SDS011;63269;53.330;-6.288;2023-11-19T11:47:24;2.03;;;0.80;;
74749;SDS011;63269;53.330;-6.288;2023-11-19T11:49:50;11.20;;;1.50;;
74749;SDS011;63269;53.330;-6.288;2023-11-19T11:52:17;3.90;;;1.17;;
74749;SDS011;63269;53.330;-6.288;2023-11-19T11:54:44;1.20;;;0.82;;
74749;SDS011;63269;53.330;-6.288;2023-11-19T11:57:13;1.83;;;1.13;;
74749;SDS011;63269;53.330;-6.288;2023-11-19T11:59:46;1.95;;;0.75;;
74749;SDS011;63269;53.330;-6.288;2023-11-19T12:02:15;1.25;;;0.50;;
74749;SDS011;63269;53.330;-6.288;2023-11-19T12:04:47;0.80;;;0.50;;
74749;SDS011;63269;53.330;-6.288;2023-11-19T12:10:08;0.88;;;0.55;;
74749;SDS011;63269;53.330;-6.288;2023-11-19T12:12:36;2.28;;;0.70;;
74749;SDS011;63269;53.330;-6.288;2023-11-19T12:20:00;1.00;;;0.40;;
74749;SDS011;63269;53.330;-6.288;2023-11-19T12:22:26;0.80;;;0.50;;
74749;SDS011;63269;53.330;-6.288;2023-11-19T12:24:53;1.17;;;0.50;;
74749;SDS011;63269;53.330;-6.288;2023-11-19T12:27:19;1.00;;;0.50;;
74749;SDS011;63269;53.330;-6.288;2023-11-19T12:29:47;0.80;;;0.57;;
74749;SDS011;63269;53.330;-6.288;2023-11-19T12:32:12;0.80;;;0.40;;
74749;SDS011;63269;53.330;-6.288;2023-11-19T12:34:38;0.77;;;0.43;;
74749;SDS011;63269;53.330;-6.288;2023-11-19T12:37:04;1.33;;;0.50;;
74749;SDS011;63269;53.330;-6.288;2023-11-19T12:39:30;1.35;;;0.50;;
74749;SDS011;63269;53.330;-6.288;2023-11-19T12:41:56;2.67;;;0.82;;
74749;SDS011;63269;53.330;-6.288;2023-11-19T12:44:24;1.70;;;0.43;;
74749;SDS011;63269;53.330;-6.288;2023-11-19T12:47:00;1.65;;;0.40;;
74749;SDS011;63269;53.330;-6.288;2023-11-19T12:49:29;0.63;;;0.30;;
74749;SDS011;63269;53.330;-6.288;2023-11-19T12:51:54;0.70;;;0.50;;
74749;SDS011;63269;53.330;-6.288;2023-11-19T12:54:20;1.63;;;0.70;;
74749;SDS011;63269;53.330;-6.288;2023-11-19T12:56:56;1.40;;;0.25;;
74749;SDS011;63269;53.330;-6.288;2023-11-19T12:59:21;0.98;;;0.40;;
74749;SDS011;63269;53.330;-6.288;2023-11-19T13:01:56;1.25;;;0.40;;
74749;SDS011;63269;53.330;-6.288;2023-11-19T13:04:22;1.90;;;0.60;;
74749;SDS011;63269;53.330;-6.288;2023-11-19T13:06:49;1.05;;;0.40;;
74749;SDS011;63269;53.330;-6.288;2023-11-19T13:09:27;0.57;;;0.25;;
74749;SDS011;63269;53.330;-6.288;2023-11-19T13:11:54;1.35;;;0.60;;
74749;SDS011;63269;53.330;-6.288;2023-11-19T13:14:21;1.13;;;0.40;;
74749;SDS011;63269;53.330;-6.288;2023-11-19T13:16:48;0.90;;;0.40;;
74749;SDS011;63269;53.330;-6.288;2023-11-19T13:19:14;2.25;;;0.80;;
74749;SDS011;63269;53.330;-6.288;2023-11-19T13:21:41;1.85;;;0.40;;
74749;SDS011;63269;53.330;-6.288;2023-11-19T13:24:07;1.13;;;0.55;;
74749;SDS011;63269;53.330;-6.288;2023-11-19T13:26:32;1.85;;;0.70;;
74749;SDS011;63269;53.330;-6.288;2023-11-19T13:28:58;2.45;;;0.90;;
74749;SDS011;63269;53.330;-6.288;2023-11-19T13:31:23;1.38;;;0.70;;
74749;SDS011;63269;53.330;-6.288;2023-11-19T13:33:48;1.85;;;0.55;;
74749;SDS011;63269;53.330;-6.288;2023-11-19T13:36:14;1.92;;;0.90;;
74749;SDS011;63269;53.330;-6.288;2023-11-19T13:38:40;1.67;;;0.65;;
74749;SDS011;63269;53.330;-6.288;2023-11-19T13:41:09;1.90;;;0.73;;
74749;SDS011;63269;53.330;-6.288;2023-11-19T13:43:35;2.08;;;0.90;;
74749;SDS011;63269;53.330;-6.288;2023-11-19T13:46:01;1.83;;;0.80;;
74749;SDS011;63269;53.330;-6.288;2023-11-19T13:48:27;3.65;;;0.82;;
74749;SDS011;63269;53.330;-6.288;2023-11-19T13:50:54;3.55;;;1.08;;
74749;SDS011;63269;53.330;-6.288;2023-11-19T13:53:20;3.13;;;1.10;;
74749;SDS011;63269;53.330;-6.288;2023-11-19T13:55:46;3.22;;;1.20;;
74749;SDS011;63269;53.330;-6.288;2023-11-19T13:58:12;3.53;;;1.15;;
74749;SDS011;63269;53.330;-6.288;2023-11-19T14:00:38;4.28;;;0.85;;
74749;SDS011;63269;53.330;-6.288;2023-11-19T14:03:03;4.68;;;1.75;;
74749;SDS011;63269;53.330;-6.288;2023-11-19T14:05:29;2.28;;;0.90;;
74749;SDS011;63269;53.330;-6.288;2023-11-19T14:07:55;2.25;;;0.88;;
74749;SDS011;63269;53.330;-6.288;2023-11-19T14:10:22;3.88;;;1.30;;
74749;SDS011;63269;53.330;-6.288;2023-11-19T14:12:48;3.75;;;0.98;;
74749;SDS011;63269;53.330;-6.288;2023-11-19T14:15:14;4.35;;;1.38;;
74749;SDS011;63269;53.330;-6.288;2023-11-19T14:17:42;4.07;;;1.30;;
74749;SDS011;63269;53.330;-6.288;2023-11-19T14:20:08;5.40;;;1.63;;
74749;SDS011;63269;53.330;-6.288;2023-11-19T14:22:45;2.83;;;0.95;;
74749;SDS011;63269;53.330;-6.288;2023-11-19T14:25:14;4.78;;;1.55;;
74749;SDS011;63269;53.330;-6.288;2023-11-19T14:27:40;5.30;;;1.48;;
74749;SDS011;63269;53.330;-6.288;2023-11-19T14:30:07;7.53;;;1.75;;
74749;SDS011;63269;53.330;-6.288;2023-11-19T14:32:36;12.47;;;2.23;;
74749;SDS011;63269;53.330;-6.288;2023-11-19T14:35:02;8.00;;;1.85;;
74749;SDS011;63269;53.330;-6.288;2023-11-19T14:37:28;10.98;;;2.28;;
74749;SDS011;63269;53.330;-6.288;2023-11-19T14:39:55;12.40;;;2.10;;
74749;SDS011;63269;53.330;-6.288;2023-11-19T14:42:22;9.95;;;2.25;;
74749;SDS011;63269;53.330;-6.288;2023-11-19T14:44:48;4.25;;;1.63;;
74749;SDS011;63269;53.330;-6.288;2023-11-19T14:47:14;13.43;;;2.33;;
74749;SDS011;63269;53.330;-6.288;2023-11-19T14:49:39;7.43;;;2.10;;